sensor_id;sensor_type;location;lat;lon;timestamp;temperature;humidity
6210;DHT22;3138;52.550;13.148;2023-12-22T00:01:17;4.40;99.90
6210;DHT22;3138;52.550;13.148;2023-12-22T00:03:44;4.30;99.90
6210;DHT22;3138;52.550;13.148;2023-12-22T00:06:11;4.20;99.90
6210;DHT22;3138;52.550;13.148;2023-12-22T00:08:40;4.20;99.90
6210;DHT22;3138;52.550;13.148;2023-12-22T00:11:07;4.30;99.90
6210;DHT22;3138;52.550;13.148;2023-12-22T00:13:34;4.20;99.90
6210;DHT22;3138;52.550;13.148;2023-12-22T00:16:01;4.30;99.90
6210;DHT22;3138;52.550;13.148;2023-12-22T00:18:28;4.30;99.90
6210;DHT22;3138;52.550;13.148;2023-12-22T00:20:54;4.40;99.90
6210;DHT22;3138;52.550;13.148;2023-12-22T00:23:21;4.40;99.90
6210;DHT22;3138;52.550;13.148;2023-12-22T00:25:49;4.50;99.90
6210;DHT22;3138;52.550;13.148;2023-12-22T00:28:16;4.40;99.90
6210;DHT22;3138;52.550;13.148;2023-12-22T00:30:43;4.60;99.90
6210;DHT22;3138;52.550;13.148;2023-12-22T00:33:10;4.60;99.90
6210;DHT22;3138;52.550;13.148;2023-12-22T00:35:36;4.50;99.90
6210;DHT22;3138;52.550;13.148;2023-12-22T00:38:03;4.50;99.90
6210;DHT22;3138;52.550;13.148;2023-12-22T00:40:30;4.40;99.90
6210;DHT22;3138;52.550;13.148;2023-12-22T00:42:58;4.40;99.90
6210;DHT22;3138;52.550;13.148;2023-12-22T00:45:25;4.40;99.90
6210;DHT22;3138;52.550;13.148;2023-12-22T00:47:52;4.50;99.90
6210;DHT22;3138;52.550;13.148;2023-12-22T00:50:19;4.40;99.90
6210;DHT22;3138;52.550;13.148;2023-12-22T00:52:45;4.40;99.90
6210;DHT22;3138;52.550;13.148;2023-12-22T00:55:12;4.40;99.90
6210;DHT22;3138;52.550;13.148;2023-12-22T00:57:39;4.40;99.90
6210;DHT22;3138;52.550;13.148;2023-12-22T01:00:09;4.30;99.90
6210;DHT22;3138;52.550;13.148;2023-12-22T01:02:38;4.30;99.90
6210;DHT22;3138;52.550;13.148;2023-12-22T01:05:05;4.30;99.90
6210;DHT22;3138;52.550;13.148;2023-12-22T01:07:32;4.30;99.90
6210;DHT22;3138;52.550;13.148;2023-12-22T01:09:58;4.30;99.90
6210;DHT22;3138;52.550;13.148;2023-12-22T01:12:27;4.30;99.90
6210;DHT22;3138;52.550;13.148;2023-12-22T01:14:53;4.30;99.90
6210;DHT22;3138;52.550;13.148;2023-12-22T01:17:22;4.30;99.90
6210;DHT22;3138;52.550;13.148;2023-12-22T01:19:49;4.30;99.90
6210;DHT22;3138;52.550;13.148;2023-12-22T01:22:16;4.30;99.90
6210;DHT22;3138;52.550;13.148;2023-12-22T01:24:43;4.20;99.90
6210;DHT22;3138;52.550;13.148;2023-12-22T01:27:11;4.20;99.90
6210;DHT22;3138;52.550;13.148;2023-12-22T01:29:38;4.20;99.90
6210;DHT22;3138;52.550;13.148;2023-12-22T01:32:05;4.20;99.90
6210;DHT22;3138;52.550;13.148;2023-12-22T01:34:33;4.20;99.90
6210;DHT22;3138;52.550;13.148;2023-12-22T01:37:00;4.10;99.90
6210;DHT22;3138;52.550;13.148;2023-12-22T01:39:27;4.20;99.90
6210;DHT22;3138;52.550;13.148;2023-12-22T01:41:54;4.10;99.90
6210;DHT22;3138;52.550;13.148;2023-12-22T01:44:21;4.10;99.90
6210;DHT22;3138;52.550;13.148;2023-12-22T01:46:49;4.00;99.90
6210;DHT22;3138;52.550;13.148;2023-12-22T01:49:16;4.10;99.90
6210;DHT22;3138;52.550;13.148;2023-12-22T01:51:44;4.00;99.90
6210;DHT22;3138;52.550;13.148;2023-12-22T01:54:13;4.10;99.90
6210;DHT22;3138;52.550;13.148;2023-12-22T01:56:41;4.10;99.90
6210;DHT22;3138;52.550;13.148;2023-12-22T01:59:08;4.00;99.90
6210;DHT22;3138;52.550;13.148;2023-12-22T02:01:36;4.10;99.90
6210;DHT22;3138;52.550;13.148;2023-12-22T02:04:03;4.00;99.90
6210;DHT22;3138;52.550;13.148;2023-12-22T02:06:33;4.00;99.90
6210;DHT22;3138;52.550;13.148;2023-12-22T02:09:03;4.00;99.90
6210;DHT22;3138;52.550;13.148;2023-12-22T02:11:30;4.00;99.90
6210;DHT22;3138;52.550;13.148;2023-12-22T02:13:57;4.00;99.90
6210;DHT22;3138;52.550;13.148;2023-12-22T02:16:31;4.00;99.90
6210;DHT22;3138;52.550;13.148;2023-12-22T02:19:01;4.10;99.90
6210;DHT22;3138;52.550;13.148;2023-12-22T02:21:30;4.10;99.90
6210;DHT22;3138;52.550;13.148;2023-12-22T02:23:58;4.10;99.90
6210;DHT22;3138;52.550;13.148;2023-12-22T02:26:28;4.00;99.90
6210;DHT22;3138;52.550;13.148;2023-12-22T02:29:00;3.90;99.90
6210;DHT22;3138;52.550;13.148;2023-12-22T02:31:36;3.90;99.90
6210;DHT22;3138;52.550;13.148;2023-12-22T02:34:05;3.80;99.90
6210;DHT22;3138;52.550;13.148;2023-12-22T02:36:36;3.80;99.90
6210;DHT22;3138;52.550;13.148;2023-12-22T02:39:07;3.80;99.90
6210;DHT22;3138;52.550;13.148;2023-12-22T02:41:35;3.80;99.90
6210;DHT22;3138;52.550;13.148;2023-12-22T02:44:03;3.80;99.90
6210;DHT22;3138;52.550;13.148;2023-12-22T02:46:30;3.80;99.90
6210;DHT22;3138;52.550;13.148;2023-12-22T02:48:56;3.80;99.90
6210;DHT22;3138;52.550;13.148;2023-12-22T02:51:23;3.70;99.90
6210;DHT22;3138;52.550;13.148;2023-12-22T02:53:50;3.70;99.90
6210;DHT22;3138;52.550;13.148;2023-12-22T02:56:18;3.70;99.90
6210;DHT22;3138;52.550;13.148;2023-12-22T02:58:45;3.70;99.90
6210;DHT22;3138;52.550;13.148;2023-12-22T03:01:12;3.70;99.90
6210;DHT22;3138;52.550;13.148;2023-12-22T03:03:38;3.60;99.90
6210;DHT22;3138;52.550;13.148;2023-12-22T03:06:05;3.60;99.90
6210;DHT22;3138;52.550;13.148;2023-12-22T03:08:32;3.60;99.90
6210;DHT22;3138;52.550;13.148;2023-12-22T03:10:59;3.50;99.90
6210;DHT22;3138;52.550;13.148;2023-12-22T03:13:27;3.50;99.90
6210;DHT22;3138;52.550;13.148;2023-12-22T03:15:54;3.50;99.90
6210;DHT22;3138;52.550;13.148;2023-12-22T03:18:21;3.60;99.90
6210;DHT22;3138;52.550;13.148;2023-12-22T03:20:48;3.50;99.90
6210;DHT22;3138;52.550;13.148;2023-12-22T03:23:14;3.50;99.90
6210;DHT22;3138;52.550;13.148;2023-12-22T03:25:41;3.50;99.90
6210;DHT22;3138;52.550;13.148;2023-12-22T03:28:08;3.60;99.90
6210;DHT22;3138;52.550;13.148;2023-12-22T03:30:36;3.60;99.90
6210;DHT22;3138;52.550;13.148;2023-12-22T03:33:06;3.60;99.90
6210;DHT22;3138;52.550;13.148;2023-12-22T03:35:33;3.60;99.90
6210;DHT22;3138;52.550;13.148;2023-12-22T03:37:59;3.70;99.90
6210;DHT22;3138;52.550;13.148;2023-12-22T03:40:26;3.70;99.90
6210;DHT22;3138;52.550;13.148;2023-12-22T03:42:53;3.70;99.90
6210;DHT22;3138;52.550;13.148;2023-12-22T03:45:20;3.80;99.90
6210;DHT22;3138;52.550;13.148;2023-12-22T03:47:48;3.80;99.90
6210;DHT22;3138;52.550;13.148;2023-12-22T03:50:15;3.80;99.90
6210;DHT22;3138;52.550;13.148;2023-12-22T03:52:41;3.80;99.90
6210;DHT22;3138;52.550;13.148;2023-12-22T03:55:08;3.90;99.90
6210;DHT22;3138;52.550;13.148;2023-12-22T03:57:35;3.80;99.90
6210;DHT22;3138;52.550;13.148;2023-12-22T04:00:02;3.80;99.90
6210;DHT22;3138;52.550;13.148;2023-12-22T04:02:30;3.80;99.90
6210;DHT22;3138;52.550;13.148;2023-12-22T04:04:58;3.70;99.90
6210;DHT22;3138;52.550;13.148;2023-12-22T04:07:25;3.60;99.90
6210;DHT22;3138;52.550;13.148;2023-12-22T04:09:51;3.40;99.90
6210;DHT22;3138;52.550;13.148;2023-12-22T04:12:18;3.30;99.90
6210;DHT22;3138;52.550;13.148;2023-12-22T04:14:45;3.30;99.90
6210;DHT22;3138;52.550;13.148;2023-12-22T04:17:12;3.20;99.90
6210;DHT22;3138;52.550;13.148;2023-12-22T04:19:39;3.10;99.90
6210;DHT22;3138;52.550;13.148;2023-12-22T04:22:07;3.10;99.90
6210;DHT22;3138;52.550;13.148;2023-12-22T04:24:34;3.00;99.90
6210;DHT22;3138;52.550;13.148;2023-12-22T04:27:00;2.90;99.90
6210;DHT22;3138;52.550;13.148;2023-12-22T04:29:27;2.90;99.90
6210;DHT22;3138;52.550;13.148;2023-12-22T04:31:54;2.90;99.90
6210;DHT22;3138;52.550;13.148;2023-12-22T04:34:21;2.90;99.90
6210;DHT22;3138;52.550;13.148;2023-12-22T04:36:48;3.00;99.90
6210;DHT22;3138;52.550;13.148;2023-12-22T04:39:16;3.10;99.90
6210;DHT22;3138;52.550;13.148;2023-12-22T04:41:43;3.10;99.90
6210;DHT22;3138;52.550;13.148;2023-12-22T04:44:10;3.20;99.90
6210;DHT22;3138;52.550;13.148;2023-12-22T04:46:36;3.20;99.90
6210;DHT22;3138;52.550;13.148;2023-12-22T04:49:06;3.30;99.90
6210;DHT22;3138;52.550;13.148;2023-12-22T04:51:32;3.30;99.90
6210;DHT22;3138;52.550;13.148;2023-12-22T04:53:59;3.20;99.90
6210;DHT22;3138;52.550;13.148;2023-12-22T04:56:27;3.10;99.90
6210;DHT22;3138;52.550;13.148;2023-12-22T04:58:54;2.80;99.90
6210;DHT22;3138;52.550;13.148;2023-12-22T05:01:21;2.60;99.90
6210;DHT22;3138;52.550;13.148;2023-12-22T05:03:48;2.50;99.90
6210;DHT22;3138;52.550;13.148;2023-12-22T05:06:14;2.40;99.90
6210;DHT22;3138;52.550;13.148;2023-12-22T05:08:41;2.40;99.90
6210;DHT22;3138;52.550;13.148;2023-12-22T05:11:08;2.40;99.90
6210;DHT22;3138;52.550;13.148;2023-12-22T05:13:36;2.40;99.90
6210;DHT22;3138;52.550;13.148;2023-12-22T05:16:04;2.40;99.90
6210;DHT22;3138;52.550;13.148;2023-12-22T05:18:31;2.40;99.90
6210;DHT22;3138;52.550;13.148;2023-12-22T05:20:58;2.50;99.90
6210;DHT22;3138;52.550;13.148;2023-12-22T05:23:25;2.50;99.90
6210;DHT22;3138;52.550;13.148;2023-12-22T05:25:51;2.60;99.90
6210;DHT22;3138;52.550;13.148;2023-12-22T05:28:18;2.70;99.90
6210;DHT22;3138;52.550;13.148;2023-12-22T05:30:46;2.70;99.90
6210;DHT22;3138;52.550;13.148;2023-12-22T05:33:13;2.60;99.90
6210;DHT22;3138;52.550;13.148;2023-12-22T05:35:40;2.50;99.90
6210;DHT22;3138;52.550;13.148;2023-12-22T05:38:07;2.50;99.90
6210;DHT22;3138;52.550;13.148;2023-12-22T05:40:34;2.40;99.90
6210;DHT22;3138;52.550;13.148;2023-12-22T05:43:01;2.30;99.90
6210;DHT22;3138;52.550;13.148;2023-12-22T05:45:28;2.30;99.90
6210;DHT22;3138;52.550;13.148;2023-12-22T05:47:56;2.30;99.90
6210;DHT22;3138;52.550;13.148;2023-12-22T05:50:23;2.40;99.90
6210;DHT22;3138;52.550;13.148;2023-12-22T05:52:50;2.40;99.90
6210;DHT22;3138;52.550;13.148;2023-12-22T05:57:45;2.50;99.90
6210;DHT22;3138;52.550;13.148;2023-12-22T06:00:13;2.50;99.90
6210;DHT22;3138;52.550;13.148;2023-12-22T06:02:41;2.60;99.90
6210;DHT22;3138;52.550;13.148;2023-12-22T06:05:09;2.60;99.90
6210;DHT22;3138;52.550;13.148;2023-12-22T06:07:36;2.60;99.90
6210;DHT22;3138;52.550;13.148;2023-12-22T06:10:03;2.60;99.90
6210;DHT22;3138;52.550;13.148;2023-12-22T06:12:30;2.60;99.90
6210;DHT22;3138;52.550;13.148;2023-12-22T06:14:57;2.60;99.90
6210;DHT22;3138;52.550;13.148;2023-12-22T06:17:24;2.60;99.90
6210;DHT22;3138;52.550;13.148;2023-12-22T06:19:51;2.60;99.90
6210;DHT22;3138;52.550;13.148;2023-12-22T06:22:19;2.60;99.90
6210;DHT22;3138;52.550;13.148;2023-12-22T06:24:46;2.70;99.90
6210;DHT22;3138;52.550;13.148;2023-12-22T06:27:13;2.60;99.90
6210;DHT22;3138;52.550;13.148;2023-12-22T06:29:40;2.60;99.90
6210;DHT22;3138;52.550;13.148;2023-12-22T06:32:07;2.60;99.90
6210;DHT22;3138;52.550;13.148;2023-12-22T06:34:34;2.70;99.90
6210;DHT22;3138;52.550;13.148;2023-12-22T06:37:00;2.70;99.90
6210;DHT22;3138;52.550;13.148;2023-12-22T06:39:28;2.60;99.90
6210;DHT22;3138;52.550;13.148;2023-12-22T06:41:56;2.50;99.90
6210;DHT22;3138;52.550;13.148;2023-12-22T06:44:23;2.50;99.90
6210;DHT22;3138;52.550;13.148;2023-12-22T06:46:51;2.50;99.90
6210;DHT22;3138;52.550;13.148;2023-12-22T06:49:19;2.50;99.90
6210;DHT22;3138;52.550;13.148;2023-12-22T06:51:46;2.60;99.90
6210;DHT22;3138;52.550;13.148;2023-12-22T06:54:13;2.60;99.90
6210;DHT22;3138;52.550;13.148;2023-12-22T06:56:41;2.60;99.90
6210;DHT22;3138;52.550;13.148;2023-12-22T06:59:08;2.70;99.90
6210;DHT22;3138;52.550;13.148;2023-12-22T07:01:37;2.80;99.90
6210;DHT22;3138;52.550;13.148;2023-12-22T07:04:04;3.00;99.90
6210;DHT22;3138;52.550;13.148;2023-12-22T07:06:33;3.00;99.90
6210;DHT22;3138;52.550;13.148;2023-12-22T07:12:09;2.90;99.90
6210;DHT22;3138;52.550;13.148;2023-12-22T07:14:36;2.90;99.90
6210;DHT22;3138;52.550;13.148;2023-12-22T07:17:03;2.90;99.90
6210;DHT22;3138;52.550;13.148;2023-12-22T07:19:30;2.90;99.90
6210;DHT22;3138;52.550;13.148;2023-12-22T07:21:57;3.00;99.90
6210;DHT22;3138;52.550;13.148;2023-12-22T07:24:24;3.00;99.90
6210;DHT22;3138;52.550;13.148;2023-12-22T07:26:50;3.00;99.90
6210;DHT22;3138;52.550;13.148;2023-12-22T07:29:19;3.10;99.90
6210;DHT22;3138;52.550;13.148;2023-12-22T07:31:45;3.00;99.90
6210;DHT22;3138;52.550;13.148;2023-12-22T07:34:13;3.10;99.90
6210;DHT22;3138;52.550;13.148;2023-12-22T07:36:40;3.10;99.90
6210;DHT22;3138;52.550;13.148;2023-12-22T07:39:07;3.20;99.90
6210;DHT22;3138;52.550;13.148;2023-12-22T07:41:34;3.20;99.90
6210;DHT22;3138;52.550;13.148;2023-12-22T07:44:01;3.20;99.90
6210;DHT22;3138;52.550;13.148;2023-12-22T07:46:30;3.20;99.90
6210;DHT22;3138;52.550;13.148;2023-12-22T07:48:56;3.20;99.90
6210;DHT22;3138;52.550;13.148;2023-12-22T07:51:23;3.20;99.90
6210;DHT22;3138;52.550;13.148;2023-12-22T07:53:50;3.10;99.90
6210;DHT22;3138;52.550;13.148;2023-12-22T07:56:17;3.20;99.90
6210;DHT22;3138;52.550;13.148;2023-12-22T07:58:44;3.30;99.90
6210;DHT22;3138;52.550;13.148;2023-12-22T08:01:12;3.30;99.90
6210;DHT22;3138;52.550;13.148;2023-12-22T08:03:42;3.20;99.90
6210;DHT22;3138;52.550;13.148;2023-12-22T08:06:08;3.10;99.90
6210;DHT22;3138;52.550;13.148;2023-12-22T08:08:35;3.10;99.90
6210;DHT22;3138;52.550;13.148;2023-12-22T08:11:02;3.00;99.90
6210;DHT22;3138;52.550;13.148;2023-12-22T08:13:29;2.90;99.90
6210;DHT22;3138;52.550;13.148;2023-12-22T08:15:56;2.90;99.90
6210;DHT22;3138;52.550;13.148;2023-12-22T08:18:23;2.80;99.90
6210;DHT22;3138;52.550;13.148;2023-12-22T08:20:51;2.80;99.90
6210;DHT22;3138;52.550;13.148;2023-12-22T08:23:18;2.70;99.90
6210;DHT22;3138;52.550;13.148;2023-12-22T08:25:44;2.70;99.90
6210;DHT22;3138;52.550;13.148;2023-12-22T08:28:11;2.70;99.90
6210;DHT22;3138;52.550;13.148;2023-12-22T08:30:38;2.70;99.90
6210;DHT22;3138;52.550;13.148;2023-12-22T08:33:05;2.70;99.90
6210;DHT22;3138;52.550;13.148;2023-12-22T08:35:32;2.60;99.90
6210;DHT22;3138;52.550;13.148;2023-12-22T08:38:01;2.70;99.90
6210;DHT22;3138;52.550;13.148;2023-12-22T08:40:28;2.70;99.90
6210;DHT22;3138;52.550;13.148;2023-12-22T08:42:55;2.80;99.90
6210;DHT22;3138;52.550;13.148;2023-12-22T08:45:25;2.80;99.90
6210;DHT22;3138;52.550;13.148;2023-12-22T08:47:54;2.80;99.90
6210;DHT22;3138;52.550;13.148;2023-12-22T08:50:21;2.90;99.90
6210;DHT22;3138;52.550;13.148;2023-12-22T08:52:48;2.90;99.90
6210;DHT22;3138;52.550;13.148;2023-12-22T08:55:16;3.00;99.90
6210;DHT22;3138;52.550;13.148;2023-12-22T08:57:43;3.00;99.90
6210;DHT22;3138;52.550;13.148;2023-12-22T09:00:11;3.00;99.90
6210;DHT22;3138;52.550;13.148;2023-12-22T09:02:38;3.00;99.90
6210;DHT22;3138;52.550;13.148;2023-12-22T09:05:05;3.10;99.90
6210;DHT22;3138;52.550;13.148;2023-12-22T09:07:33;3.20;99.90
6210;DHT22;3138;52.550;13.148;2023-12-22T09:10:00;3.30;99.90
6210;DHT22;3138;52.550;13.148;2023-12-22T09:12:28;3.40;99.90
6210;DHT22;3138;52.550;13.148;2023-12-22T09:14:55;3.40;99.90
6210;DHT22;3138;52.550;13.148;2023-12-22T09:17:22;3.50;99.90
6210;DHT22;3138;52.550;13.148;2023-12-22T09:19:48;3.40;99.90
6210;DHT22;3138;52.550;13.148;2023-12-22T09:22:15;3.60;99.90
6210;DHT22;3138;52.550;13.148;2023-12-22T09:24:42;3.60;99.90
6210;DHT22;3138;52.550;13.148;2023-12-22T09:27:09;3.60;99.90
6210;DHT22;3138;52.550;13.148;2023-12-22T09:29:37;3.60;99.90
6210;DHT22;3138;52.550;13.148;2023-12-22T09:32:05;3.60;99.90
6210;DHT22;3138;52.550;13.148;2023-12-22T09:34:32;3.70;99.90
6210;DHT22;3138;52.550;13.148;2023-12-22T09:36:58;3.70;99.90
6210;DHT22;3138;52.550;13.148;2023-12-22T09:39:25;3.70;99.90
6210;DHT22;3138;52.550;13.148;2023-12-22T09:41:54;3.70;99.90
6210;DHT22;3138;52.550;13.148;2023-12-22T09:44:21;3.80;99.90
6210;DHT22;3138;52.550;13.148;2023-12-22T09:46:50;3.70;99.90
6210;DHT22;3138;52.550;13.148;2023-12-22T09:49:19;3.80;99.90
6210;DHT22;3138;52.550;13.148;2023-12-22T09:51:46;3.80;99.90
6210;DHT22;3138;52.550;13.148;2023-12-22T09:54:13;3.80;99.90
6210;DHT22;3138;52.550;13.148;2023-12-22T09:56:41;3.90;99.90
6210;DHT22;3138;52.550;13.148;2023-12-22T09:59:10;3.80;99.90
6210;DHT22;3138;52.550;13.148;2023-12-22T10:01:43;3.90;99.90
6210;DHT22;3138;52.550;13.148;2023-12-22T10:04:12;3.90;99.90
6210;DHT22;3138;52.550;13.148;2023-12-22T10:06:39;3.90;99.90
6210;DHT22;3138;52.550;13.148;2023-12-22T10:09:07;4.00;99.90
6210;DHT22;3138;52.550;13.148;2023-12-22T10:11:37;4.10;99.90
6210;DHT22;3138;52.550;13.148;2023-12-22T10:14:05;4.10;99.90
6210;DHT22;3138;52.550;13.148;2023-12-22T10:16:33;4.10;99.90
6210;DHT22;3138;52.550;13.148;2023-12-22T10:19:00;4.10;99.90
6210;DHT22;3138;52.550;13.148;2023-12-22T10:21:28;4.10;99.90
6210;DHT22;3138;52.550;13.148;2023-12-22T10:23:56;4.20;99.90
6210;DHT22;3138;52.550;13.148;2023-12-22T10:26:23;4.20;99.90
6210;DHT22;3138;52.550;13.148;2023-12-22T10:28:50;4.20;99.90
6210;DHT22;3138;52.550;13.148;2023-12-22T10:31:17;4.20;99.90
6210;DHT22;3138;52.550;13.148;2023-12-22T10:33:44;4.20;99.90
6210;DHT22;3138;52.550;13.148;2023-12-22T10:36:11;4.30;99.90
6210;DHT22;3138;52.550;13.148;2023-12-22T10:38:39;4.30;99.90
6210;DHT22;3138;52.550;13.148;2023-12-22T10:41:08;4.40;99.90
6210;DHT22;3138;52.550;13.148;2023-12-22T10:43:39;4.40;99.90
6210;DHT22;3138;52.550;13.148;2023-12-22T10:46:06;4.30;99.90
6210;DHT22;3138;52.550;13.148;2023-12-22T10:48:34;4.30;99.90
6210;DHT22;3138;52.550;13.148;2023-12-22T10:51:00;4.30;99.90
6210;DHT22;3138;52.550;13.148;2023-12-22T10:53:28;4.40;99.90
6210;DHT22;3138;52.550;13.148;2023-12-22T10:55:58;4.30;99.90
6210;DHT22;3138;52.550;13.148;2023-12-22T10:58:25;4.30;99.90
6210;DHT22;3138;52.550;13.148;2023-12-22T11:00:52;4.40;99.90
6210;DHT22;3138;52.550;13.148;2023-12-22T11:03:23;4.40;99.90
6210;DHT22;3138;52.550;13.148;2023-12-22T11:05:51;4.30;99.90
6210;DHT22;3138;52.550;13.148;2023-12-22T11:08:19;4.20;99.90
6210;DHT22;3138;52.550;13.148;2023-12-22T11:10:53;4.20;99.90
6210;DHT22;3138;52.550;13.148;2023-12-22T11:13:24;4.20;99.90
6210;DHT22;3138;52.550;13.148;2023-12-22T11:15:52;4.20;99.90
6210;DHT22;3138;52.550;13.148;2023-12-22T11:18:22;4.20;99.90
6210;DHT22;3138;52.550;13.148;2023-12-22T11:20:50;4.40;99.90
6210;DHT22;3138;52.550;13.148;2023-12-22T11:23:18;4.40;99.90
6210;DHT22;3138;52.550;13.148;2023-12-22T11:25:48;4.50;99.90
6210;DHT22;3138;52.550;13.148;2023-12-22T11:28:20;4.50;99.90
6210;DHT22;3138;52.550;13.148;2023-12-22T11:30:49;4.60;99.90
6210;DHT22;3138;52.550;13.148;2023-12-22T11:33:18;4.60;99.90
6210;DHT22;3138;52.550;13.148;2023-12-22T11:35:46;4.60;99.90
6210;DHT22;3138;52.550;13.148;2023-12-22T11:38:13;4.60;99.90
6210;DHT22;3138;52.550;13.148;2023-12-22T11:40:40;4.60;99.90
6210;DHT22;3138;52.550;13.148;2023-12-22T11:43:07;4.50;99.90
6210;DHT22;3138;52.550;13.148;2023-12-22T11:45:35;4.50;99.90
6210;DHT22;3138;52.550;13.148;2023-12-22T11:48:07;4.60;99.90
6210;DHT22;3138;52.550;13.148;2023-12-22T11:50:35;4.40;99.90
6210;DHT22;3138;52.550;13.148;2023-12-22T11:53:21;4.40;99.90
6210;DHT22;3138;52.550;13.148;2023-12-22T11:56:01;4.60;99.90
6210;DHT22;3138;52.550;13.148;2023-12-22T11:58:37;4.50;99.90
6210;DHT22;3138;52.550;13.148;2023-12-22T12:01:06;4.50;99.90
6210;DHT22;3138;52.550;13.148;2023-12-22T12:03:36;4.40;99.90
6210;DHT22;3138;52.550;13.148;2023-12-22T12:06:21;4.50;99.90
6210;DHT22;3138;52.550;13.148;2023-12-22T12:08:48;4.40;99.90
6210;DHT22;3138;52.550;13.148;2023-12-22T12:11:16;4.50;99.90
6210;DHT22;3138;52.550;13.148;2023-12-22T12:13:44;4.50;99.90
6210;DHT22;3138;52.550;13.148;2023-12-22T12:16:12;4.50;99.90
6210;DHT22;3138;52.550;13.148;2023-12-22T12:18:41;4.50;99.90
6210;DHT22;3138;52.550;13.148;2023-12-22T12:21:09;4.40;99.90
6210;DHT22;3138;52.550;13.148;2023-12-22T12:23:37;4.40;99.90
6210;DHT22;3138;52.550;13.148;2023-12-22T12:26:05;4.50;99.90
6210;DHT22;3138;52.550;13.148;2023-12-22T12:28:33;4.50;99.90
6210;DHT22;3138;52.550;13.148;2023-12-22T12:31:03;4.50;99.90
6210;DHT22;3138;52.550;13.148;2023-12-22T12:33:31;4.50;99.90
6210;DHT22;3138;52.550;13.148;2023-12-22T12:36:00;4.50;99.90
6210;DHT22;3138;52.550;13.148;2023-12-22T12:38:36;4.50;99.90
6210;DHT22;3138;52.550;13.148;2023-12-22T12:41:09;4.40;99.90
6210;DHT22;3138;52.550;13.148;2023-12-22T12:43:37;4.40;99.90
6210;DHT22;3138;52.550;13.148;2023-12-22T12:46:07;4.40;99.90
6210;DHT22;3138;52.550;13.148;2023-12-22T12:48:34;4.30;99.90
6210;DHT22;3138;52.550;13.148;2023-12-22T12:51:04;4.40;99.90
6210;DHT22;3138;52.550;13.148;2023-12-22T12:53:31;4.50;99.90
6210;DHT22;3138;52.550;13.148;2023-12-22T12:55:59;4.60;99.90
6210;DHT22;3138;52.550;13.148;2023-12-22T12:58:29;4.70;99.90
6210;DHT22;3138;52.550;13.148;2023-12-22T13:01:07;4.70;99.90
6210;DHT22;3138;52.550;13.148;2023-12-22T13:03:51;4.70;99.90
6210;DHT22;3138;52.550;13.148;2023-12-22T13:06:19;4.70;99.90
6210;DHT22;3138;52.550;13.148;2023-12-22T13:08:48;4.70;99.90
6210;DHT22;3138;52.550;13.148;2023-12-22T13:11:15;4.70;99.90
6210;DHT22;3138;52.550;13.148;2023-12-22T13:13:43;4.60;99.90
6210;DHT22;3138;52.550;13.148;2023-12-22T13:16:10;4.60;99.90
6210;DHT22;3138;52.550;13.148;2023-12-22T13:18:37;4.60;99.90
6210;DHT22;3138;52.550;13.148;2023-12-22T13:21:04;4.70;99.90
6210;DHT22;3138;52.550;13.148;2023-12-22T13:23:33;4.70;99.90
6210;DHT22;3138;52.550;13.148;2023-12-22T13:25:59;4.70;99.90
6210;DHT22;3138;52.550;13.148;2023-12-22T13:28:26;4.70;99.90
6210;DHT22;3138;52.550;13.148;2023-12-22T13:30:53;4.70;99.90
6210;DHT22;3138;52.550;13.148;2023-12-22T13:33:21;4.70;99.90
6210;DHT22;3138;52.550;13.148;2023-12-22T13:35:50;4.60;99.90
6210;DHT22;3138;52.550;13.148;2023-12-22T13:38:18;4.60;99.90
6210;DHT22;3138;52.550;13.148;2023-12-22T13:40:47;4.60;99.90
6210;DHT22;3138;52.550;13.148;2023-12-22T13:43:14;4.60;99.90
6210;DHT22;3138;52.550;13.148;2023-12-22T13:45:41;4.60;99.90
6210;DHT22;3138;52.550;13.148;2023-12-22T13:48:08;4.60;99.90
6210;DHT22;3138;52.550;13.148;2023-12-22T13:50:35;4.50;99.90
6210;DHT22;3138;52.550;13.148;2023-12-22T13:53:09;4.50;99.90
6210;DHT22;3138;52.550;13.148;2023-12-22T13:55:36;4.50;99.90
6210;DHT22;3138;52.550;13.148;2023-12-22T13:58:05;4.40;99.90
6210;DHT22;3138;52.550;13.148;2023-12-22T14:00:33;4.30;99.90
6210;DHT22;3138;52.550;13.148;2023-12-22T14:03:01;4.20;99.90
6210;DHT22;3138;52.550;13.148;2023-12-22T14:05:28;4.10;99.90
6210;DHT22;3138;52.550;13.148;2023-12-22T14:07:55;4.00;99.90
6210;DHT22;3138;52.550;13.148;2023-12-22T14:10:22;3.90;99.90
6210;DHT22;3138;52.550;13.148;2023-12-22T14:12:49;3.80;99.90
6210;DHT22;3138;52.550;13.148;2023-12-22T14:15:18;3.70;99.90
6210;DHT22;3138;52.550;13.148;2023-12-22T14:17:45;3.70;99.90
6210;DHT22;3138;52.550;13.148;2023-12-22T14:20:12;3.60;99.90
6210;DHT22;3138;52.550;13.148;2023-12-22T14:22:40;3.60;99.90
6210;DHT22;3138;52.550;13.148;2023-12-22T14:25:07;3.50;99.90
6210;DHT22;3138;52.550;13.148;2023-12-22T14:27:37;3.50;99.90
6210;DHT22;3138;52.550;13.148;2023-12-22T14:30:06;3.50;99.90
6210;DHT22;3138;52.550;13.148;2023-12-22T14:32:34;3.50;99.90
6210;DHT22;3138;52.550;13.148;2023-12-22T14:35:01;3.50;99.90
6210;DHT22;3138;52.550;13.148;2023-12-22T14:37:28;3.50;99.90
6210;DHT22;3138;52.550;13.148;2023-12-22T14:39:55;3.50;99.90
6210;DHT22;3138;52.550;13.148;2023-12-22T14:42:21;3.50;99.90
6210;DHT22;3138;52.550;13.148;2023-12-22T14:44:48;3.50;99.90
6210;DHT22;3138;52.550;13.148;2023-12-22T14:47:15;3.40;99.90
6210;DHT22;3138;52.550;13.148;2023-12-22T14:49:43;3.40;99.90
6210;DHT22;3138;52.550;13.148;2023-12-22T14:52:10;3.30;99.90
6210;DHT22;3138;52.550;13.148;2023-12-22T14:54:37;3.30;99.90
6210;DHT22;3138;52.550;13.148;2023-12-22T14:57:04;3.30;99.90
6210;DHT22;3138;52.550;13.148;2023-12-22T14:59:31;3.30;99.90
6210;DHT22;3138;52.550;13.148;2023-12-22T15:01:58;3.30;99.90
6210;DHT22;3138;52.550;13.148;2023-12-22T15:04:24;3.30;99.90
6210;DHT22;3138;52.550;13.148;2023-12-22T15:06:53;3.40;99.90
6210;DHT22;3138;52.550;13.148;2023-12-22T15:09:20;3.30;99.90
6210;DHT22;3138;52.550;13.148;2023-12-22T15:11:47;3.40;99.90
6210;DHT22;3138;52.550;13.148;2023-12-22T15:14:14;3.40;99.90
6210;DHT22;3138;52.550;13.148;2023-12-22T15:16:42;3.40;99.90
6210;DHT22;3138;52.550;13.148;2023-12-22T15:19:11;3.40;99.90
6210;DHT22;3138;52.550;13.148;2023-12-22T15:21:38;3.40;99.90
6210;DHT22;3138;52.550;13.148;2023-12-22T15:24:07;3.40;99.90
6210;DHT22;3138;52.550;13.148;2023-12-22T15:26:33;3.40;99.90
6210;DHT22;3138;52.550;13.148;2023-12-22T15:29:01;3.40;99.90
6210;DHT22;3138;52.550;13.148;2023-12-22T15:31:27;3.40;99.90
6210;DHT22;3138;52.550;13.148;2023-12-22T15:33:55;3.40;99.90
6210;DHT22;3138;52.550;13.148;2023-12-22T15:36:22;3.40;99.90
6210;DHT22;3138;52.550;13.148;2023-12-22T15:38:50;3.40;99.90
6210;DHT22;3138;52.550;13.148;2023-12-22T15:41:18;3.50;99.90
6210;DHT22;3138;52.550;13.148;2023-12-22T15:43:45;3.40;99.90
6210;DHT22;3138;52.550;13.148;2023-12-22T15:46:12;3.40;99.90
6210;DHT22;3138;52.550;13.148;2023-12-22T15:48:39;3.40;99.90
6210;DHT22;3138;52.550;13.148;2023-12-22T15:51:06;3.40;99.90
6210;DHT22;3138;52.550;13.148;2023-12-22T15:53:33;3.40;99.90
6210;DHT22;3138;52.550;13.148;2023-12-22T15:56:03;3.40;99.90
6210;DHT22;3138;52.550;13.148;2023-12-22T15:58:32;3.40;99.90
6210;DHT22;3138;52.550;13.148;2023-12-22T16:01:00;3.50;99.90
6210;DHT22;3138;52.550;13.148;2023-12-22T16:03:27;3.40;99.90
6210;DHT22;3138;52.550;13.148;2023-12-22T16:05:54;3.30;99.90
6210;DHT22;3138;52.550;13.148;2023-12-22T16:08:21;3.30;99.90
6210;DHT22;3138;52.550;13.148;2023-12-22T16:10:48;3.30;99.90